Portage, IN (46368)

9:56 AM CDT on October 30, 2014 (GMT -0500)
Lake Dombey | Change Station
CLOSE
Current Station
Personal Weather Station
Location: Portage, IN
Elevation: 640 ft
Nearby Weather Stations
Active Advisory: Lakeshore Flood Advisory

Elev 640 ft 41.58 °N, 87.21 °W | Updated 12 seconds ago

Mostly Cloudy
Mostly Cloudy
44.6 °F
Feels Like 45 °F
N
1.1
Wind Variable Wind from South
Gusts 2.7 mph

Today
High -- | Low -- °F
--% Chance of Precip.
Yesterday
High -- | Low -- °F
Precip. -- in
7:18 AM 5:45 PM
Waxing Crescent, 44% visible
Pressure 30.15 in
Visibility 12.0 miles
Clouds Mostly Cloudy 15000 ft
Overcast 25000 ft
Windchill 45 °F
Dew Point 38 °F
Humidity 78%
Rainfall 0.00 in
Snow Depth Not available.
UV 1 out of 12
Pollen .30 out of 12
Air Quality Not available.
Flu Activity Not available.
METAR KGYY 301445Z 21006KT 12SM BKN150 OVC250 07/01 A3015

More Conditions Fewer Conditions

Pressure 30.15 in
Visibility 12.0 miles
Clouds Mostly Cloudy 15000 ft
Overcast 25000 ft
Windchill 45 °F
Dew Point 38 °F
Humidity 78%
Rainfall 0.00 in
Snow Depth Not available.
UV 1 out of 12
Pollen .30 out of 12
Air Quality Not available.
Flu Activity Not available.
METAR KGYY 301445Z 21006KT 12SM BKN150 OVC250 07/01 A3015

More Conditions Fewer Conditions

10-Day Weather Forecast

Almanac

Astronomy

Oct. 30, 2014 Rise Set
Actual Time
Civil Twilight
Nautical Twilight
Astronomical Twilight
Moon
Length of Visible Light
Length of Day
Tomorrow will be .
, % of the Moon is Illuminated

Today's Extremes

State Highs State Lows

Community

WunderPhotos

Upload Photos

1,766,379 photos uploaded!

WunderBlogs® & News

Nearby

Air Quality

  Air Quality AQ Index Pollutant
Not available.

Snow Depth

Station Depth Elevation

Earthquake Activity

City Distance Mag. Time & Date
Minimum magnitude displayed is 2.5.

Coastal Water Temperatures

Place Temperature

Nearby Weather Stations